< < Back
Terminal Aerodrome Forecast


Current Version              Previous Versions:   1  2  3  4  5  6  7  8  9  

Terminal Aerodrome Forecast

059
FTUS42 KGSP 171100
TAFGSP
TAF
KGSP 171135Z 1712/1812 04008KT P6SM BKN250
     FM171400 04012G21KT P6SM BKN250
     FM171800 06008KT P6SM BKN250
     FM180800 03006KT P6SM BKN040=

Latest METAR

943
SAUS70 KWBC 171300 RRF
MTRGSP
METAR KGSP 171253Z 05010KT 10SM CLR 06/M01 A3049 RMK AO2 SLP325
T00561011


USA.gov is the U.S. government's official web portal to all federal, state and local government web resources and services.